sensor_id;sensor_type;location;lat;lon;timestamp;P1;durP1;ratioP1;P2;durP2;ratioP2
62543;SDS011;48597;49.030;1.822;2024-01-30T00:00:37;2.05;;;1.40;;
62543;SDS011;48597;49.030;1.822;2024-01-30T00:03:02;1.65;;;1.55;;
62543;SDS011;48597;49.030;1.822;2024-01-30T00:05:28;1.75;;;1.45;;
62543;SDS011;48597;49.030;1.822;2024-01-30T00:07:53;2.10;;;1.50;;
62543;SDS011;48597;49.030;1.822;2024-01-30T00:10:19;1.40;;;1.30;;
62543;SDS011;48597;49.030;1.822;2024-01-30T00:12:44;1.67;;;1.58;;
62543;SDS011;48597;49.030;1.822;2024-01-30T00:15:09;1.73;;;1.42;;
62543;SDS011;48597;49.030;1.822;2024-01-30T00:17:38;2.55;;;1.83;;
62543;SDS011;48597;49.030;1.822;2024-01-30T00:20:03;1.67;;;1.50;;
62543;SDS011;48597;49.030;1.822;2024-01-30T00:22:34;1.63;;;1.47;;
62543;SDS011;48597;49.030;1.822;2024-01-30T00:24:59;1.50;;;1.40;;
62543;SDS011;48597;49.030;1.822;2024-01-30T00:27:25;1.60;;;1.50;;
62543;SDS011;48597;49.030;1.822;2024-01-30T00:29:52;1.85;;;1.58;;
62543;SDS011;48597;49.030;1.822;2024-01-30T00:32:18;1.63;;;1.50;;
62543;SDS011;48597;49.030;1.822;2024-01-30T00:34:44;2.17;;;1.42;;
62543;SDS011;48597;49.030;1.822;2024-01-30T00:37:10;1.70;;;1.42;;
62543;SDS011;48597;49.030;1.822;2024-01-30T00:39:35;1.65;;;1.55;;
62543;SDS011;48597;49.030;1.822;2024-01-30T00:42:01;1.85;;;1.70;;
62543;SDS011;48597;49.030;1.822;2024-01-30T00:44:26;1.90;;;1.70;;
62543;SDS011;48597;49.030;1.822;2024-01-30T00:46:51;1.80;;;1.50;;
62543;SDS011;48597;49.030;1.822;2024-01-30T00:49:17;1.50;;;1.30;;
62543;SDS011;48597;49.030;1.822;2024-01-30T00:51:42;1.50;;;1.40;;
62543;SDS011;48597;49.030;1.822;2024-01-30T00:54:08;1.45;;;1.30;;
62543;SDS011;48597;49.030;1.822;2024-01-30T00:56:33;1.73;;;1.40;;
62543;SDS011;48597;49.030;1.822;2024-01-30T00:58:59;1.67;;;1.58;;
62543;SDS011;48597;49.030;1.822;2024-01-30T01:01:24;1.40;;;1.30;;
62543;SDS011;48597;49.030;1.822;2024-01-30T01:03:49;1.40;;;1.30;;
62543;SDS011;48597;49.030;1.822;2024-01-30T01:06:15;1.45;;;1.35;;
62543;SDS011;48597;49.030;1.822;2024-01-30T01:08:40;1.55;;;1.42;;
62543;SDS011;48597;49.030;1.822;2024-01-30T01:11:05;2.22;;;1.45;;
62543;SDS011;48597;49.030;1.822;2024-01-30T01:13:31;1.40;;;1.30;;
62543;SDS011;48597;49.030;1.822;2024-01-30T01:15:56;1.52;;;1.42;;
62543;SDS011;48597;49.030;1.822;2024-01-30T01:18:21;1.30;;;1.20;;
62543;SDS011;48597;49.030;1.822;2024-01-30T01:20:47;1.50;;;1.33;;
62543;SDS011;48597;49.030;1.822;2024-01-30T01:23:15;1.77;;;1.52;;
62543;SDS011;48597;49.030;1.822;2024-01-30T01:25:40;1.75;;;1.65;;
62543;SDS011;48597;49.030;1.822;2024-01-30T01:28:05;1.30;;;1.20;;
62543;SDS011;48597;49.030;1.822;2024-01-30T01:30:31;1.73;;;1.50;;
62543;SDS011;48597;49.030;1.822;2024-01-30T01:32:56;1.38;;;1.27;;
62543;SDS011;48597;49.030;1.822;2024-01-30T01:35:25;1.80;;;1.48;;
62543;SDS011;48597;49.030;1.822;2024-01-30T01:37:51;1.55;;;1.40;;
62543;SDS011;48597;49.030;1.822;2024-01-30T01:40:23;1.25;;;1.15;;
62543;SDS011;48597;49.030;1.822;2024-01-30T01:42:49;1.75;;;1.38;;
62543;SDS011;48597;49.030;1.822;2024-01-30T01:45:16;1.92;;;1.30;;
62543;SDS011;48597;49.030;1.822;2024-01-30T01:47:42;1.40;;;1.30;;
62543;SDS011;48597;49.030;1.822;2024-01-30T01:50:08;1.50;;;1.40;;
62543;SDS011;48597;49.030;1.822;2024-01-30T01:52:33;1.42;;;1.33;;
62543;SDS011;48597;49.030;1.822;2024-01-30T01:54:59;1.60;;;1.50;;
62543;SDS011;48597;49.030;1.822;2024-01-30T01:57:25;1.63;;;1.52;;
62543;SDS011;48597;49.030;1.822;2024-01-30T01:59:50;1.45;;;1.25;;
62543;SDS011;48597;49.030;1.822;2024-01-30T02:02:17;1.40;;;1.27;;
62543;SDS011;48597;49.030;1.822;2024-01-30T02:04:44;1.40;;;1.30;;
62543;SDS011;48597;49.030;1.822;2024-01-30T02:07:10;1.63;;;1.20;;
62543;SDS011;48597;49.030;1.822;2024-01-30T02:09:36;1.40;;;1.25;;
62543;SDS011;48597;49.030;1.822;2024-01-30T02:12:01;1.67;;;1.40;;
62543;SDS011;48597;49.030;1.822;2024-01-30T02:14:26;1.63;;;1.30;;
62543;SDS011;48597;49.030;1.822;2024-01-30T02:16:52;1.75;;;1.33;;
62543;SDS011;48597;49.030;1.822;2024-01-30T02:19:17;1.38;;;1.20;;
62543;SDS011;48597;49.030;1.822;2024-01-30T02:21:43;1.45;;;1.30;;
62543;SDS011;48597;49.030;1.822;2024-01-30T02:24:10;1.40;;;1.30;;
62543;SDS011;48597;49.030;1.822;2024-01-30T02:26:35;1.20;;;1.10;;
62543;SDS011;48597;49.030;1.822;2024-01-30T02:29:00;1.45;;;1.30;;
62543;SDS011;48597;49.030;1.822;2024-01-30T02:31:26;1.50;;;1.40;;
62543;SDS011;48597;49.030;1.822;2024-01-30T02:33:51;1.52;;;1.20;;
62543;SDS011;48597;49.030;1.822;2024-01-30T02:36:16;1.40;;;1.30;;
62543;SDS011;48597;49.030;1.822;2024-01-30T02:38:42;1.63;;;1.42;;
62543;SDS011;48597;49.030;1.822;2024-01-30T02:41:07;1.60;;;1.48;;
62543;SDS011;48597;49.030;1.822;2024-01-30T02:43:32;1.40;;;1.30;;
62543;SDS011;48597;49.030;1.822;2024-01-30T02:45:58;2.00;;;1.50;;
62543;SDS011;48597;49.030;1.822;2024-01-30T02:48:24;1.30;;;1.20;;
62543;SDS011;48597;49.030;1.822;2024-01-30T02:50:50;1.35;;;1.23;;
62543;SDS011;48597;49.030;1.822;2024-01-30T02:53:15;1.50;;;1.40;;
62543;SDS011;48597;49.030;1.822;2024-01-30T02:55:40;1.30;;;1.20;;
62543;SDS011;48597;49.030;1.822;2024-01-30T02:58:06;1.65;;;1.38;;
62543;SDS011;48597;49.030;1.822;2024-01-30T03:00:31;1.55;;;1.30;;
62543;SDS011;48597;49.030;1.822;2024-01-30T03:02:57;1.42;;;1.20;;
62543;SDS011;48597;49.030;1.822;2024-01-30T03:05:22;1.20;;;1.10;;
62543;SDS011;48597;49.030;1.822;2024-01-30T03:07:48;1.52;;;1.30;;
62543;SDS011;48597;49.030;1.822;2024-01-30T03:10:13;1.20;;;1.10;;
62543;SDS011;48597;49.030;1.822;2024-01-30T03:12:38;1.50;;;1.20;;
62543;SDS011;48597;49.030;1.822;2024-01-30T03:15:04;1.85;;;1.27;;
62543;SDS011;48597;49.030;1.822;2024-01-30T03:17:29;1.25;;;1.10;;
62543;SDS011;48597;49.030;1.822;2024-01-30T03:19:55;1.30;;;1.20;;
62543;SDS011;48597;49.030;1.822;2024-01-30T03:22:20;1.77;;;1.42;;
62543;SDS011;48597;49.030;1.822;2024-01-30T03:24:45;1.30;;;1.20;;
62543;SDS011;48597;49.030;1.822;2024-01-30T03:27:11;1.33;;;1.20;;
62543;SDS011;48597;49.030;1.822;2024-01-30T03:29:36;1.40;;;1.30;;
62543;SDS011;48597;49.030;1.822;2024-01-30T03:32:02;1.15;;;1.05;;
62543;SDS011;48597;49.030;1.822;2024-01-30T03:34:29;1.30;;;1.20;;
62543;SDS011;48597;49.030;1.822;2024-01-30T03:36:54;1.20;;;1.13;;
62543;SDS011;48597;49.030;1.822;2024-01-30T03:39:19;1.35;;;1.25;;
62543;SDS011;48597;49.030;1.822;2024-01-30T03:41:45;1.13;;;1.00;;
62543;SDS011;48597;49.030;1.822;2024-01-30T03:44:10;1.33;;;1.10;;
62543;SDS011;48597;49.030;1.822;2024-01-30T03:46:36;1.67;;;1.23;;
62543;SDS011;48597;49.030;1.822;2024-01-30T03:49:01;1.27;;;1.17;;
62543;SDS011;48597;49.030;1.822;2024-01-30T03:51:27;1.35;;;1.25;;
62543;SDS011;48597;49.030;1.822;2024-01-30T03:53:52;1.50;;;1.25;;
62543;SDS011;48597;49.030;1.822;2024-01-30T03:56:17;2.05;;;1.13;;
62543;SDS011;48597;49.030;1.822;2024-01-30T03:58:43;1.30;;;1.20;;
62543;SDS011;48597;49.030;1.822;2024-01-30T04:01:12;1.30;;;1.20;;
62543;SDS011;48597;49.030;1.822;2024-01-30T04:03:41;1.20;;;1.10;;
62543;SDS011;48597;49.030;1.822;2024-01-30T04:06:07;1.30;;;1.20;;
62543;SDS011;48597;49.030;1.822;2024-01-30T04:08:33;1.27;;;1.17;;
62543;SDS011;48597;49.030;1.822;2024-01-30T04:10:58;1.20;;;1.10;;
62543;SDS011;48597;49.030;1.822;2024-01-30T04:13:27;1.33;;;1.23;;
62543;SDS011;48597;49.030;1.822;2024-01-30T04:15:53;1.33;;;1.15;;
62543;SDS011;48597;49.030;1.822;2024-01-30T04:18:20;1.40;;;1.30;;
62543;SDS011;48597;49.030;1.822;2024-01-30T04:20:45;1.38;;;1.02;;
62543;SDS011;48597;49.030;1.822;2024-01-30T04:23:11;1.27;;;1.17;;
62543;SDS011;48597;49.030;1.822;2024-01-30T04:25:36;1.20;;;1.08;;
62543;SDS011;48597;49.030;1.822;2024-01-30T04:28:01;1.10;;;1.00;;
62543;SDS011;48597;49.030;1.822;2024-01-30T04:30:27;1.30;;;1.20;;
62543;SDS011;48597;49.030;1.822;2024-01-30T04:32:52;1.20;;;1.10;;
62543;SDS011;48597;49.030;1.822;2024-01-30T04:35:18;1.85;;;1.38;;
62543;SDS011;48597;49.030;1.822;2024-01-30T04:37:45;1.23;;;1.13;;
62543;SDS011;48597;49.030;1.822;2024-01-30T04:40:11;1.27;;;1.17;;
62543;SDS011;48597;49.030;1.822;2024-01-30T04:42:36;1.52;;;1.20;;
62543;SDS011;48597;49.030;1.822;2024-01-30T04:45:01;1.20;;;1.02;;
62543;SDS011;48597;49.030;1.822;2024-01-30T04:47:27;1.30;;;1.02;;
62543;SDS011;48597;49.030;1.822;2024-01-30T04:49:52;1.40;;;1.20;;
62543;SDS011;48597;49.030;1.822;2024-01-30T04:52:18;1.33;;;1.20;;
62543;SDS011;48597;49.030;1.822;2024-01-30T04:54:43;1.20;;;1.10;;
62543;SDS011;48597;49.030;1.822;2024-01-30T04:57:08;1.50;;;1.30;;
62543;SDS011;48597;49.030;1.822;2024-01-30T04:59:37;1.60;;;1.00;;
62543;SDS011;48597;49.030;1.822;2024-01-30T05:02:02;1.17;;;1.08;;
62543;SDS011;48597;49.030;1.822;2024-01-30T05:04:27;1.30;;;1.20;;
62543;SDS011;48597;49.030;1.822;2024-01-30T05:06:53;1.30;;;1.20;;
62543;SDS011;48597;49.030;1.822;2024-01-30T05:09:18;1.13;;;1.02;;
62543;SDS011;48597;49.030;1.822;2024-01-30T05:11:44;1.30;;;1.20;;
62543;SDS011;48597;49.030;1.822;2024-01-30T05:14:09;1.55;;;1.10;;
62543;SDS011;48597;49.030;1.822;2024-01-30T05:16:36;1.10;;;1.00;;
62543;SDS011;48597;49.030;1.822;2024-01-30T05:19:02;1.30;;;1.00;;
62543;SDS011;48597;49.030;1.822;2024-01-30T05:21:27;1.55;;;1.30;;
62543;SDS011;48597;49.030;1.822;2024-01-30T05:23:52;1.13;;;1.02;;
62543;SDS011;48597;49.030;1.822;2024-01-30T05:26:19;1.25;;;1.10;;
62543;SDS011;48597;49.030;1.822;2024-01-30T05:28:44;1.48;;;1.38;;
62543;SDS011;48597;49.030;1.822;2024-01-30T05:31:10;1.42;;;1.17;;
62543;SDS011;48597;49.030;1.822;2024-01-30T05:33:35;1.30;;;1.20;;
62543;SDS011;48597;49.030;1.822;2024-01-30T05:36:01;1.90;;;1.25;;
62543;SDS011;48597;49.030;1.822;2024-01-30T05:38:26;1.30;;;1.20;;
62543;SDS011;48597;49.030;1.822;2024-01-30T05:40:52;1.58;;;1.38;;
62543;SDS011;48597;49.030;1.822;2024-01-30T05:43:17;1.30;;;1.20;;
62543;SDS011;48597;49.030;1.822;2024-01-30T05:45:42;1.45;;;1.10;;
62543;SDS011;48597;49.030;1.822;2024-01-30T05:48:08;1.75;;;1.20;;
62543;SDS011;48597;49.030;1.822;2024-01-30T05:50:33;1.30;;;1.15;;
62543;SDS011;48597;49.030;1.822;2024-01-30T05:52:59;1.30;;;1.20;;
62543;SDS011;48597;49.030;1.822;2024-01-30T05:55:24;1.30;;;1.13;;
62543;SDS011;48597;49.030;1.822;2024-01-30T05:57:49;1.80;;;1.23;;
62543;SDS011;48597;49.030;1.822;2024-01-30T06:00:15;1.20;;;1.10;;
62543;SDS011;48597;49.030;1.822;2024-01-30T06:02:41;2.05;;;1.27;;
62543;SDS011;48597;49.030;1.822;2024-01-30T06:05:07;2.65;;;1.20;;
62543;SDS011;48597;49.030;1.822;2024-01-30T06:07:32;1.27;;;1.17;;
62543;SDS011;48597;49.030;1.822;2024-01-30T06:09:58;1.30;;;1.20;;
62543;SDS011;48597;49.030;1.822;2024-01-30T06:12:25;1.30;;;1.20;;
62543;SDS011;48597;49.030;1.822;2024-01-30T06:14:50;1.70;;;1.20;;
62543;SDS011;48597;49.030;1.822;2024-01-30T06:17:19;1.50;;;1.30;;
62543;SDS011;48597;49.030;1.822;2024-01-30T06:19:57;1.30;;;1.20;;
62543;SDS011;48597;49.030;1.822;2024-01-30T06:22:22;1.35;;;1.20;;
62543;SDS011;48597;49.030;1.822;2024-01-30T06:24:48;1.25;;;1.10;;
62543;SDS011;48597;49.030;1.822;2024-01-30T06:27:14;1.83;;;1.02;;
62543;SDS011;48597;49.030;1.822;2024-01-30T06:29:40;1.42;;;1.30;;
62543;SDS011;48597;49.030;1.822;2024-01-30T06:32:06;1.42;;;1.20;;
62543;SDS011;48597;49.030;1.822;2024-01-30T06:34:31;2.50;;;1.30;;
62543;SDS011;48597;49.030;1.822;2024-01-30T06:36:56;1.75;;;1.40;;
62543;SDS011;48597;49.030;1.822;2024-01-30T06:39:22;2.42;;;1.30;;
62543;SDS011;48597;49.030;1.822;2024-01-30T06:41:48;1.50;;;1.40;;
62543;SDS011;48597;49.030;1.822;2024-01-30T06:44:13;2.00;;;1.30;;
62543;SDS011;48597;49.030;1.822;2024-01-30T06:46:39;3.90;;;1.30;;
62543;SDS011;48597;49.030;1.822;2024-01-30T06:49:04;2.65;;;1.20;;
62543;SDS011;48597;49.030;1.822;2024-01-30T06:51:30;1.98;;;1.40;;
62543;SDS011;48597;49.030;1.822;2024-01-30T06:53:55;1.85;;;1.48;;
62543;SDS011;48597;49.030;1.822;2024-01-30T06:56:20;2.60;;;1.40;;
62543;SDS011;48597;49.030;1.822;2024-01-30T06:58:55;1.70;;;1.10;;
62543;SDS011;48597;49.030;1.822;2024-01-30T07:01:21;1.20;;;1.10;;
62543;SDS011;48597;49.030;1.822;2024-01-30T07:03:52;1.60;;;1.25;;
62543;SDS011;48597;49.030;1.822;2024-01-30T07:06:18;2.35;;;1.42;;
62543;SDS011;48597;49.030;1.822;2024-01-30T07:08:43;1.30;;;1.20;;
62543;SDS011;48597;49.030;1.822;2024-01-30T07:11:08;1.45;;;1.20;;
62543;SDS011;48597;49.030;1.822;2024-01-30T07:13:34;1.50;;;1.30;;
62543;SDS011;48597;49.030;1.822;2024-01-30T07:15:59;1.77;;;1.40;;
62543;SDS011;48597;49.030;1.822;2024-01-30T07:18:25;1.65;;;1.42;;
62543;SDS011;48597;49.030;1.822;2024-01-30T07:20:50;1.42;;;1.33;;
62543;SDS011;48597;49.030;1.822;2024-01-30T07:23:16;1.80;;;1.20;;
62543;SDS011;48597;49.030;1.822;2024-01-30T07:25:45;1.27;;;1.17;;
62543;SDS011;48597;49.030;1.822;2024-01-30T07:28:13;2.17;;;1.70;;
62543;SDS011;48597;49.030;1.822;2024-01-30T07:30:41;1.50;;;1.17;;
62543;SDS011;48597;49.030;1.822;2024-01-30T07:33:07;1.42;;;1.10;;
62543;SDS011;48597;49.030;1.822;2024-01-30T07:35:33;2.00;;;1.50;;
62543;SDS011;48597;49.030;1.822;2024-01-30T07:37:59;1.40;;;1.23;;
62543;SDS011;48597;49.030;1.822;2024-01-30T07:40:24;2.10;;;1.40;;
62543;SDS011;48597;49.030;1.822;2024-01-30T07:42:50;1.77;;;1.20;;
62543;SDS011;48597;49.030;1.822;2024-01-30T07:45:15;1.98;;;1.40;;
62543;SDS011;48597;49.030;1.822;2024-01-30T07:47:41;1.55;;;1.30;;
62543;SDS011;48597;49.030;1.822;2024-01-30T07:50:07;2.35;;;1.40;;
62543;SDS011;48597;49.030;1.822;2024-01-30T07:52:33;2.20;;;1.48;;
62543;SDS011;48597;49.030;1.822;2024-01-30T07:54:58;2.15;;;1.30;;
62543;SDS011;48597;49.030;1.822;2024-01-30T07:57:23;2.78;;;1.45;;
62543;SDS011;48597;49.030;1.822;2024-01-30T07:59:49;1.50;;;1.40;;
62543;SDS011;48597;49.030;1.822;2024-01-30T08:02:15;2.13;;;1.30;;
62543;SDS011;48597;49.030;1.822;2024-01-30T08:04:40;3.03;;;1.52;;
62543;SDS011;48597;49.030;1.822;2024-01-30T08:07:06;2.25;;;1.30;;
62543;SDS011;48597;49.030;1.822;2024-01-30T08:09:31;2.10;;;1.30;;
62543;SDS011;48597;49.030;1.822;2024-01-30T08:11:57;2.35;;;1.40;;
62543;SDS011;48597;49.030;1.822;2024-01-30T08:14:22;1.70;;;1.60;;
62543;SDS011;48597;49.030;1.822;2024-01-30T08:16:47;2.92;;;1.60;;
62543;SDS011;48597;49.030;1.822;2024-01-30T08:19:14;2.30;;;1.45;;
62543;SDS011;48597;49.030;1.822;2024-01-30T08:21:40;2.10;;;1.40;;
62543;SDS011;48597;49.030;1.822;2024-01-30T08:24:06;2.90;;;1.52;;
62543;SDS011;48597;49.030;1.822;2024-01-30T08:26:32;3.72;;;1.30;;
62543;SDS011;48597;49.030;1.822;2024-01-30T08:28:58;1.77;;;1.42;;
62543;SDS011;48597;49.030;1.822;2024-01-30T08:31:23;2.75;;;1.70;;
62543;SDS011;48597;49.030;1.822;2024-01-30T08:33:48;2.03;;;1.50;;
62543;SDS011;48597;49.030;1.822;2024-01-30T08:36:14;2.10;;;1.50;;
62543;SDS011;48597;49.030;1.822;2024-01-30T08:38:40;2.47;;;1.50;;
62543;SDS011;48597;49.030;1.822;2024-01-30T08:41:06;1.92;;;1.65;;
62543;SDS011;48597;49.030;1.822;2024-01-30T08:43:32;2.25;;;1.35;;
62543;SDS011;48597;49.030;1.822;2024-01-30T08:46:01;1.75;;;1.27;;
62543;SDS011;48597;49.030;1.822;2024-01-30T08:48:26;2.15;;;1.52;;
62543;SDS011;48597;49.030;1.822;2024-01-30T08:50:52;1.77;;;1.52;;
62543;SDS011;48597;49.030;1.822;2024-01-30T08:53:17;2.17;;;1.52;;
62543;SDS011;48597;49.030;1.822;2024-01-30T08:55:43;1.70;;;1.50;;
62543;SDS011;48597;49.030;1.822;2024-01-30T08:58:09;2.20;;;1.33;;
62543;SDS011;48597;49.030;1.822;2024-01-30T09:00:34;2.13;;;1.45;;
62543;SDS011;48597;49.030;1.822;2024-01-30T09:03:00;1.85;;;1.40;;
62543;SDS011;48597;49.030;1.822;2024-01-30T09:05:25;1.75;;;1.30;;
62543;SDS011;48597;49.030;1.822;2024-01-30T09:07:50;2.30;;;1.75;;
62543;SDS011;48597;49.030;1.822;2024-01-30T09:10:16;1.48;;;1.33;;
62543;SDS011;48597;49.030;1.822;2024-01-30T09:12:41;1.63;;;1.40;;
62543;SDS011;48597;49.030;1.822;2024-01-30T09:15:06;1.45;;;1.35;;
62543;SDS011;48597;49.030;1.822;2024-01-30T09:17:32;1.60;;;1.45;;
62543;SDS011;48597;49.030;1.822;2024-01-30T09:19:58;1.63;;;1.52;;
62543;SDS011;48597;49.030;1.822;2024-01-30T09:22:24;2.08;;;1.60;;
62543;SDS011;48597;49.030;1.822;2024-01-30T09:24:49;1.75;;;1.40;;
62543;SDS011;48597;49.030;1.822;2024-01-30T09:27:15;2.20;;;1.30;;
62543;SDS011;48597;49.030;1.822;2024-01-30T09:29:40;1.60;;;1.50;;
62543;SDS011;48597;49.030;1.822;2024-01-30T09:32:05;1.77;;;1.40;;
62543;SDS011;48597;49.030;1.822;2024-01-30T09:34:31;1.92;;;1.40;;
62543;SDS011;48597;49.030;1.822;2024-01-30T09:36:58;2.75;;;1.40;;
62543;SDS011;48597;49.030;1.822;2024-01-30T09:39:25;1.40;;;1.30;;
62543;SDS011;48597;49.030;1.822;2024-01-30T09:41:55;1.73;;;1.20;;
62543;SDS011;48597;49.030;1.822;2024-01-30T09:44:25;1.90;;;1.30;;
62543;SDS011;48597;49.030;1.822;2024-01-30T09:46:53;1.40;;;1.30;;
62543;SDS011;48597;49.030;1.822;2024-01-30T09:49:20;1.40;;;1.30;;
62543;SDS011;48597;49.030;1.822;2024-01-30T09:51:49;1.90;;;1.30;;
62543;SDS011;48597;49.030;1.822;2024-01-30T09:54:16;2.13;;;1.40;;
62543;SDS011;48597;49.030;1.822;2024-01-30T09:56:42;2.50;;;1.33;;
62543;SDS011;48597;49.030;1.822;2024-01-30T09:59:08;1.60;;;1.40;;
62543;SDS011;48597;49.030;1.822;2024-01-30T10:01:34;1.42;;;1.33;;
62543;SDS011;48597;49.030;1.822;2024-01-30T10:04:00;2.22;;;1.38;;
62543;SDS011;48597;49.030;1.822;2024-01-30T10:06:25;2.30;;;1.50;;
62543;SDS011;48597;49.030;1.822;2024-01-30T10:08:52;1.50;;;1.40;;
62543;SDS011;48597;49.030;1.822;2024-01-30T10:11:18;2.03;;;1.23;;
62543;SDS011;48597;49.030;1.822;2024-01-30T10:13:43;1.48;;;1.35;;
62543;SDS011;48597;49.030;1.822;2024-01-30T10:16:08;1.60;;;1.40;;
62543;SDS011;48597;49.030;1.822;2024-01-30T10:18:34;1.30;;;1.20;;
62543;SDS011;48597;49.030;1.822;2024-01-30T10:20:59;1.92;;;1.23;;
62543;SDS011;48597;49.030;1.822;2024-01-30T10:23:25;1.50;;;1.38;;
62543;SDS011;48597;49.030;1.822;2024-01-30T10:25:51;1.58;;;1.40;;
62543;SDS011;48597;49.030;1.822;2024-01-30T10:28:17;1.58;;;1.40;;
62543;SDS011;48597;49.030;1.822;2024-01-30T10:30:42;1.23;;;1.05;;
62543;SDS011;48597;49.030;1.822;2024-01-30T10:33:08;1.40;;;1.30;;
62543;SDS011;48597;49.030;1.822;2024-01-30T10:35:33;1.40;;;1.30;;
62543;SDS011;48597;49.030;1.822;2024-01-30T10:37:58;1.35;;;1.13;;
62543;SDS011;48597;49.030;1.822;2024-01-30T10:40:27;1.50;;;1.23;;
62543;SDS011;48597;49.030;1.822;2024-01-30T10:42:53;1.42;;;1.20;;
62543;SDS011;48597;49.030;1.822;2024-01-30T10:45:20;1.52;;;1.30;;
62543;SDS011;48597;49.030;1.822;2024-01-30T10:47:52;1.20;;;1.10;;
62543;SDS011;48597;49.030;1.822;2024-01-30T10:50:21;1.52;;;1.15;;
62543;SDS011;48597;49.030;1.822;2024-01-30T10:52:49;1.45;;;1.10;;
62543;SDS011;48597;49.030;1.822;2024-01-30T10:55:15;1.40;;;1.15;;
62543;SDS011;48597;49.030;1.822;2024-01-30T10:57:41;1.30;;;1.20;;
62543;SDS011;48597;49.030;1.822;2024-01-30T11:00:10;1.73;;;1.25;;
62543;SDS011;48597;49.030;1.822;2024-01-30T11:02:41;1.83;;;1.20;;
62543;SDS011;48597;49.030;1.822;2024-01-30T11:05:09;1.80;;;1.13;;
62543;SDS011;48597;49.030;1.822;2024-01-30T11:07:34;1.10;;;1.00;;
62543;SDS011;48597;49.030;1.822;2024-01-30T11:10:01;0.98;;;0.90;;
62543;SDS011;48597;49.030;1.822;2024-01-30T11:12:29;1.65;;;1.30;;
62543;SDS011;48597;49.030;1.822;2024-01-30T11:15:08;1.38;;;1.25;;
62543;SDS011;48597;49.030;1.822;2024-01-30T11:17:41;1.20;;;1.10;;
62543;SDS011;48597;49.030;1.822;2024-01-30T11:20:11;1.17;;;1.00;;
62543;SDS011;48597;49.030;1.822;2024-01-30T11:22:37;1.55;;;1.10;;
62543;SDS011;48597;49.030;1.822;2024-01-30T11:25:02;1.10;;;1.00;;
62543;SDS011;48597;49.030;1.822;2024-01-30T11:27:28;1.17;;;1.08;;
62543;SDS011;48597;49.030;1.822;2024-01-30T11:30:00;1.30;;;1.00;;
62543;SDS011;48597;49.030;1.822;2024-01-30T11:32:27;1.10;;;1.00;;
62543;SDS011;48597;49.030;1.822;2024-01-30T11:34:53;1.80;;;1.00;;
62543;SDS011;48597;49.030;1.822;2024-01-30T11:37:19;1.05;;;0.95;;
62543;SDS011;48597;49.030;1.822;2024-01-30T11:39:46;1.40;;;1.08;;
62543;SDS011;48597;49.030;1.822;2024-01-30T11:42:13;1.38;;;1.00;;
62543;SDS011;48597;49.030;1.822;2024-01-30T11:44:39;1.20;;;1.10;;
62543;SDS011;48597;49.030;1.822;2024-01-30T11:47:05;1.10;;;1.00;;
62543;SDS011;48597;49.030;1.822;2024-01-30T11:49:30;1.15;;;1.05;;
62543;SDS011;48597;49.030;1.822;2024-01-30T11:51:56;1.13;;;1.02;;
62543;SDS011;48597;49.030;1.822;2024-01-30T11:54:21;0.80;;;0.80;;
62543;SDS011;48597;49.030;1.822;2024-01-30T11:56:47;1.17;;;1.08;;
62543;SDS011;48597;49.030;1.822;2024-01-30T11:59:13;1.00;;;0.90;;
62543;SDS011;48597;49.030;1.822;2024-01-30T12:01:39;1.00;;;0.90;;
62543;SDS011;48597;49.030;1.822;2024-01-30T12:04:04;1.30;;;1.00;;
62543;SDS011;48597;49.030;1.822;2024-01-30T12:06:34;0.90;;;0.90;;
62543;SDS011;48597;49.030;1.822;2024-01-30T12:08:59;1.30;;;0.80;;
62543;SDS011;48597;49.030;1.822;2024-01-30T12:11:28;0.90;;;0.90;;
62543;SDS011;48597;49.030;1.822;2024-01-30T12:13:55;0.98;;;0.85;;
62543;SDS011;48597;49.030;1.822;2024-01-30T12:16:20;1.67;;;0.82;;
62543;SDS011;48597;49.030;1.822;2024-01-30T12:18:46;1.00;;;0.90;;
62543;SDS011;48597;49.030;1.822;2024-01-30T12:21:11;0.85;;;0.80;;
62543;SDS011;48597;49.030;1.822;2024-01-30T12:23:37;1.00;;;0.90;;
62543;SDS011;48597;49.030;1.822;2024-01-30T12:26:03;1.10;;;1.00;;
62543;SDS011;48597;49.030;1.822;2024-01-30T12:28:31;0.80;;;0.80;;
62543;SDS011;48597;49.030;1.822;2024-01-30T12:31:00;0.88;;;0.80;;
62543;SDS011;48597;49.030;1.822;2024-01-30T12:33:29;0.70;;;0.70;;
62543;SDS011;48597;49.030;1.822;2024-01-30T12:35:55;1.30;;;0.80;;
62543;SDS011;48597;49.030;1.822;2024-01-30T12:38:22;1.85;;;0.90;;
62543;SDS011;48597;49.030;1.822;2024-01-30T12:40:48;0.80;;;0.80;;
62543;SDS011;48597;49.030;1.822;2024-01-30T12:43:14;0.70;;;0.70;;
62543;SDS011;48597;49.030;1.822;2024-01-30T12:45:41;0.93;;;0.70;;
62543;SDS011;48597;49.030;1.822;2024-01-30T12:48:07;0.90;;;0.80;;
62543;SDS011;48597;49.030;1.822;2024-01-30T12:50:32;0.75;;;0.75;;
62543;SDS011;48597;49.030;1.822;2024-01-30T12:52:58;1.05;;;0.90;;
62543;SDS011;48597;49.030;1.822;2024-01-30T12:55:23;0.70;;;0.70;;
62543;SDS011;48597;49.030;1.822;2024-01-30T12:57:49;0.70;;;0.70;;
62543;SDS011;48597;49.030;1.822;2024-01-30T13:00:15;1.02;;;0.90;;
62543;SDS011;48597;49.030;1.822;2024-01-30T13:02:42;0.65;;;0.65;;
62543;SDS011;48597;49.030;1.822;2024-01-30T13:05:09;1.10;;;0.70;;
62543;SDS011;48597;49.030;1.822;2024-01-30T13:07:35;1.00;;;0.80;;
62543;SDS011;48597;49.030;1.822;2024-01-30T13:10:01;0.70;;;0.70;;
62543;SDS011;48597;49.030;1.822;2024-01-30T13:12:28;0.80;;;0.70;;
62543;SDS011;48597;49.030;1.822;2024-01-30T13:14:54;0.63;;;0.63;;
62543;SDS011;48597;49.030;1.822;2024-01-30T13:17:19;0.75;;;0.73;;
62543;SDS011;48597;49.030;1.822;2024-01-30T13:19:45;0.77;;;0.70;;
62543;SDS011;48597;49.030;1.822;2024-01-30T13:22:10;1.08;;;0.80;;
62543;SDS011;48597;49.030;1.822;2024-01-30T13:24:36;0.60;;;0.60;;
62543;SDS011;48597;49.030;1.822;2024-01-30T13:27:02;0.50;;;0.50;;
62543;SDS011;48597;49.030;1.822;2024-01-30T13:29:30;0.63;;;0.63;;
62543;SDS011;48597;49.030;1.822;2024-01-30T13:31:56;0.90;;;0.60;;
62543;SDS011;48597;49.030;1.822;2024-01-30T13:34:21;4.32;;;0.70;;
62543;SDS011;48597;49.030;1.822;2024-01-30T13:36:46;0.60;;;0.60;;
62543;SDS011;48597;49.030;1.822;2024-01-30T13:39:13;0.70;;;0.70;;
62543;SDS011;48597;49.030;1.822;2024-01-30T13:41:42;0.98;;;0.80;;
62543;SDS011;48597;49.030;1.822;2024-01-30T13:44:08;0.70;;;0.70;;
62543;SDS011;48597;49.030;1.822;2024-01-30T13:46:34;0.73;;;0.68;;
62543;SDS011;48597;49.030;1.822;2024-01-30T13:49:00;1.20;;;0.88;;
62543;SDS011;48597;49.030;1.822;2024-01-30T13:51:26;0.70;;;0.70;;
62543;SDS011;48597;49.030;1.822;2024-01-30T13:53:51;0.68;;;0.60;;
62543;SDS011;48597;49.030;1.822;2024-01-30T13:56:16;1.05;;;0.95;;
62543;SDS011;48597;49.030;1.822;2024-01-30T13:58:42;2.08;;;0.70;;
62543;SDS011;48597;49.030;1.822;2024-01-30T14:01:07;3.20;;;0.60;;
62543;SDS011;48597;49.030;1.822;2024-01-30T14:03:34;0.60;;;0.60;;
62543;SDS011;48597;49.030;1.822;2024-01-30T14:06:00;0.75;;;0.60;;
62543;SDS011;48597;49.030;1.822;2024-01-30T14:08:25;0.85;;;0.70;;
62543;SDS011;48597;49.030;1.822;2024-01-30T14:10:53;1.05;;;0.70;;
62543;SDS011;48597;49.030;1.822;2024-01-30T14:13:20;0.93;;;0.60;;
62543;SDS011;48597;49.030;1.822;2024-01-30T14:15:45;0.77;;;0.70;;
62543;SDS011;48597;49.030;1.822;2024-01-30T14:18:11;0.50;;;0.50;;
62543;SDS011;48597;49.030;1.822;2024-01-30T14:20:36;0.60;;;0.60;;
62543;SDS011;48597;49.030;1.822;2024-01-30T14:23:02;0.70;;;0.70;;
62543;SDS011;48597;49.030;1.822;2024-01-30T14:25:28;1.33;;;0.70;;
62543;SDS011;48597;49.030;1.822;2024-01-30T14:27:53;0.88;;;0.70;;
62543;SDS011;48597;49.030;1.822;2024-01-30T14:30:18;0.60;;;0.60;;
62543;SDS011;48597;49.030;1.822;2024-01-30T14:32:44;0.60;;;0.60;;
62543;SDS011;48597;49.030;1.822;2024-01-30T14:35:10;0.50;;;0.50;;
62543;SDS011;48597;49.030;1.822;2024-01-30T14:37:36;0.55;;;0.55;;
62543;SDS011;48597;49.030;1.822;2024-01-30T14:40:03;0.80;;;0.70;;